createdAt,value
2023-02-11T00:03:29.915Z,1.84
2023-02-11T00:07:32.988Z,1.90
2023-02-11T00:11:34.706Z,1.85
2023-02-11T00:15:37.087Z,1.84
2023-02-11T00:19:38.616Z,1.97
2023-02-11T00:23:40.652Z,2.00
2023-02-11T00:27:42.181Z,1.98
2023-02-11T00:31:43.860Z,2.19
2023-02-11T00:35:45.420Z,2.28
2023-02-11T00:39:46.918Z,2.35
2023-02-11T00:43:48.915Z,2.44
2023-02-11T00:47:53.074Z,2.55
2023-02-11T00:51:55.008Z,2.63
2023-02-11T00:55:56.798Z,2.71
2023-02-11T01:00:00.383Z,2.73
2023-02-11T01:04:01.987Z,2.82
2023-02-11T01:08:03.755Z,2.89
2023-02-11T01:12:05.596Z,2.99
2023-02-11T01:16:08.733Z,3.10
2023-02-11T01:20:16.755Z,3.13
2023-02-11T01:24:18.249Z,3.24
2023-02-11T01:28:23.693Z,3.35
2023-02-11T01:32:25.414Z,3.41
2023-02-11T01:36:28.780Z,3.42
2023-02-11T01:40:30.419Z,3.46
2023-02-11T01:44:35.178Z,3.57
2023-02-11T01:48:41.131Z,3.63
2023-02-11T01:52:46.237Z,3.71
2023-02-11T01:57:11.618Z,3.78
2023-02-11T02:01:19.141Z,3.82
2023-02-11T02:05:47.146Z,3.86
2023-02-11T02:09:55.947Z,3.81
2023-02-11T02:13:57.528Z,3.73
2023-02-11T02:18:14.561Z,3.77
2023-02-11T02:22:33.671Z,3.83
2023-02-11T02:26:54.026Z,3.90
2023-02-11T02:31:23.946Z,3.90
2023-02-11T02:35:37.180Z,3.96
2023-02-11T02:39:39.238Z,4.08
2023-02-11T02:43:44.842Z,4.15
2023-02-11T02:47:46.317Z,4.23
2023-02-11T02:52:17.311Z,4.29
2023-02-11T02:56:45.025Z,4.38
2023-02-11T03:01:03.827Z,4.41
2023-02-11T03:05:14.034Z,4.40
2023-02-11T03:09:31.314Z,4.41
2023-02-11T03:13:36.640Z,4.40
2023-02-11T03:17:41.347Z,4.45
2023-02-11T03:21:44.290Z,4.53
2023-02-11T03:25:53.169Z,4.59
2023-02-11T03:30:05.137Z,4.70
2023-02-11T03:34:12.520Z,4.76
2023-02-11T03:38:20.522Z,4.74
2023-02-11T03:42:26.232Z,4.75
2023-02-11T03:46:32.449Z,4.74
2023-02-11T03:50:36.318Z,4.84
2023-02-11T03:54:42.628Z,4.82
2023-02-11T03:58:44.569Z,4.85
2023-02-11T04:02:46.203Z,4.88
2023-02-11T04:06:47.774Z,4.90
2023-02-11T04:10:49.286Z,4.93
2023-02-11T04:14:50.702Z,4.96
2023-02-11T04:18:52.194Z,4.95
2023-02-11T04:22:53.680Z,4.95
2023-02-11T04:26:55.592Z,4.99
2023-02-11T04:30:58.359Z,5.04
2023-02-11T04:34:59.906Z,5.03
2023-02-11T04:39:01.574Z,5.02
2023-02-11T04:43:03.178Z,5.02
2023-02-11T04:47:04.640Z,5.04
2023-02-11T04:51:06.334Z,5.03
2023-02-11T04:55:08.447Z,5.03
2023-02-11T04:59:10.124Z,5.07
2023-02-11T05:03:11.765Z,4.99
2023-02-11T05:07:13.327Z,4.95
2023-02-11T05:11:20.458Z,4.91
2023-02-11T05:15:21.974Z,4.80
2023-02-11T05:19:23.461Z,4.74
2023-02-11T05:23:25.236Z,4.60
2023-02-11T05:27:26.808Z,4.59
2023-02-11T05:31:28.363Z,4.53
2023-02-11T05:35:29.832Z,4.60
2023-02-11T05:39:31.362Z,4.61
2023-02-11T05:43:35.243Z,4.61
2023-02-11T05:47:36.755Z,4.53
2023-02-11T05:51:38.221Z,4.49
2023-02-11T05:55:39.832Z,4.49
2023-02-11T05:59:41.316Z,4.53
2023-02-11T06:03:43.118Z,4.57
2023-02-11T06:07:44.930Z,4.60
2023-02-11T06:11:46.770Z,4.53
2023-02-11T06:15:59.448Z,4.55
2023-02-11T06:20:02.714Z,4.59
2023-02-11T06:24:04.540Z,4.55
2023-02-11T06:28:06.444Z,4.55
2023-02-11T06:32:15.863Z,4.62
2023-02-11T06:36:25.279Z,4.66
2023-02-11T06:40:26.991Z,4.67
2023-02-11T06:44:28.550Z,4.67
2023-02-11T06:48:29.996Z,4.76
2023-02-11T06:52:32.746Z,4.78
2023-02-11T06:56:34.774Z,4.82
2023-02-11T07:00:37.041Z,4.92
2023-02-11T07:04:38.625Z,4.97
2023-02-11T07:08:42.369Z,5.03
2023-02-11T07:12:44.104Z,5.01
2023-02-11T07:16:45.600Z,5.01
2023-02-11T07:20:47.730Z,4.99
2023-02-11T07:24:49.459Z,5.04
2023-02-11T07:28:52.194Z,5.07
2023-02-11T07:32:53.717Z,5.10
2023-02-11T07:36:55.362Z,5.09
2023-02-11T07:41:00.785Z,5.11
2023-02-11T07:45:02.330Z,5.11
2023-02-11T07:49:03.939Z,5.18
2023-02-11T07:53:05.529Z,5.28
2023-02-11T07:57:07.083Z,5.26
2023-02-11T08:01:25.280Z,5.25
2023-02-11T08:05:27.186Z,5.20
2023-02-11T08:09:28.693Z,5.31
2023-02-11T08:13:30.223Z,5.40
2023-02-11T08:17:31.738Z,5.54
2023-02-11T08:21:33.368Z,5.58
2023-02-11T08:25:34.965Z,5.53
2023-02-11T08:29:36.462Z,5.62
2023-02-11T08:33:40.330Z,5.71
2023-02-11T08:37:42.002Z,5.60
2023-02-11T08:41:43.753Z,5.53
2023-02-11T08:45:45.441Z,5.50
2023-02-11T08:49:46.926Z,5.51
2023-02-11T08:53:49.518Z,5.60
2023-02-11T08:57:51.263Z,5.67
2023-02-11T09:01:52.829Z,5.82
2023-02-11T09:05:54.710Z,5.83
2023-02-11T09:09:56.185Z,5.79
2023-02-11T09:13:58.300Z,5.94
2023-02-11T09:17:59.860Z,5.97
2023-02-11T09:22:01.633Z,6.08
2023-02-11T09:26:24.147Z,6.15
2023-02-11T09:30:25.902Z,6.27
2023-02-11T09:34:27.425Z,6.23
2023-02-11T09:38:29.256Z,6.03
2023-02-11T09:42:46.068Z,6.03
2023-02-11T09:46:55.043Z,6.09
2023-02-11T09:51:00.217Z,5.95
2023-02-11T09:55:42.736Z,6.12
2023-02-11T09:59:44.325Z,6.15
2023-02-11T10:04:16.991Z,6.06
2023-02-11T10:08:36.235Z,6.11
2023-02-11T10:12:44.232Z,6.22
2023-02-11T10:17:05.311Z,6.47
2023-02-11T10:21:27.123Z,6.63
2023-02-11T10:25:36.679Z,6.69
2023-02-11T10:29:52.309Z,6.67
2023-02-11T10:34:03.783Z,6.65
2023-02-11T10:38:05.544Z,6.56
2023-02-11T10:42:12.210Z,6.66
2023-02-11T10:46:26.597Z,6.90
2023-02-11T10:50:31.145Z,7.03
2023-02-11T10:54:32.830Z,6.88
2023-02-11T10:58:41.165Z,6.97
2023-02-11T11:02:44.408Z,7.11
2023-02-11T11:06:46.059Z,7.16
2023-02-11T11:11:06.217Z,7.18
2023-02-11T11:15:11.053Z,7.27
2023-02-11T11:19:13.554Z,7.34
2023-02-11T11:23:18.893Z,7.49
2023-02-11T11:27:24.490Z,7.66
2023-02-11T11:31:49.033Z,7.56
2023-02-11T11:36:02.746Z,7.43
2023-02-11T11:40:21.773Z,7.41
2023-02-11T11:44:32.023Z,7.39
2023-02-11T11:48:46.432Z,7.42
2023-02-11T11:52:54.089Z,7.46
2023-02-11T11:57:05.184Z,7.45
2023-02-11T12:01:40.083Z,7.41
2023-02-11T12:06:07.694Z,7.45
2023-02-11T12:10:22.594Z,7.53
2023-02-11T12:14:41.156Z,7.56
2023-02-11T12:19:14.525Z,7.39
2023-02-11T12:23:37.355Z,7.29
2023-02-11T12:28:07.350Z,7.30
2023-02-11T12:32:39.092Z,7.13
2023-02-11T12:36:54.435Z,7.04
2023-02-11T12:41:41.699Z,6.99
2023-02-11T12:46:12.258Z,6.94
2023-02-11T12:50:34.280Z,6.89
2023-02-11T12:54:54.076Z,6.77
2023-02-11T12:58:59.139Z,6.73
2023-02-11T13:03:11.908Z,6.62
2023-02-11T13:07:25.225Z,6.63
2023-02-11T13:11:30.668Z,6.65
2023-02-11T13:15:33.028Z,6.72
2023-02-11T13:19:42.581Z,6.78
2023-02-11T13:24:09.479Z,6.85
2023-02-11T13:28:19.425Z,6.79
2023-02-11T13:32:21.139Z,6.80
2023-02-11T13:36:25.749Z,6.78
2023-02-11T13:40:35.056Z,6.82
2023-02-11T13:44:37.557Z,6.92
2023-02-11T13:48:47.411Z,6.97
2023-02-11T13:52:57.132Z,6.98
2023-02-11T13:57:20.588Z,6.94
2023-02-11T14:02:20.250Z,6.96
2023-02-11T14:06:43.470Z,6.98
2023-02-11T14:10:45.498Z,6.88
2023-02-11T14:15:18.453Z,6.84
2023-02-11T14:19:31.077Z,6.84
2023-02-11T14:23:32.946Z,6.87
2023-02-11T14:27:55.395Z,6.83
2023-02-11T14:32:27.963Z,6.86
2023-02-11T14:36:54.921Z,6.72
2023-02-11T14:41:10.688Z,6.69
2023-02-11T14:45:20.893Z,6.78
2023-02-11T14:49:30.857Z,6.84
2023-02-11T14:53:34.381Z,6.89
2023-02-11T14:57:37.777Z,6.91
2023-02-11T15:01:48.739Z,6.89
2023-02-11T15:05:56.780Z,6.89
2023-02-11T15:09:58.409Z,6.89
2023-02-11T15:14:10.390Z,6.92
2023-02-11T15:18:22.468Z,6.93
2023-02-11T15:22:27.979Z,6.90
2023-02-11T15:26:30.164Z,6.89
2023-02-11T15:30:35.858Z,6.84
2023-02-11T15:34:37.564Z,6.90
2023-02-11T15:38:40.746Z,6.94
2023-02-11T15:43:11.615Z,6.96
2023-02-11T15:47:19.480Z,7.00
2023-02-11T15:51:31.103Z,7.01
2023-02-11T15:55:32.928Z,7.02
2023-02-11T15:59:47.223Z,6.97
2023-02-11T16:03:50.627Z,6.96
2023-02-11T16:07:52.265Z,7.00
2023-02-11T16:11:58.206Z,6.94
2023-02-11T16:16:05.058Z,6.93
2023-02-11T16:20:17.502Z,6.91
2023-02-11T16:24:21.582Z,6.87
2023-02-11T16:28:23.353Z,6.86
2023-02-11T16:32:27.538Z,6.78
2023-02-11T16:36:29.341Z,6.67
2023-02-11T16:40:31.025Z,6.64
2023-02-11T16:44:34.018Z,6.60
2023-02-11T16:48:35.556Z,6.49
2023-02-11T16:52:37.826Z,6.47
2023-02-11T16:56:39.441Z,6.44
2023-02-11T17:00:41.420Z,6.41
2023-02-11T17:04:44.173Z,6.32
2023-02-11T17:08:46.085Z,6.27
2023-02-11T17:12:48.996Z,6.19
2023-02-11T17:16:50.675Z,6.18
2023-02-11T17:20:52.211Z,6.19
2023-02-11T17:24:55.747Z,6.19
2023-02-11T17:28:57.233Z,6.05
2023-02-11T17:32:58.735Z,6.15
2023-02-11T17:37:01.330Z,6.16
2023-02-11T17:41:04.727Z,6.20
2023-02-11T17:45:07.763Z,6.31
2023-02-11T17:49:11.134Z,6.32
2023-02-11T17:53:14.641Z,6.36
2023-02-11T17:57:16.335Z,6.34
2023-02-11T18:01:18.090Z,6.32
2023-02-11T18:05:20.266Z,6.30
2023-02-11T18:09:21.766Z,6.24
2023-02-11T18:13:23.316Z,6.10
